Search for airport 
image banner adimage banner adimage banner ad
image banner ad

56CL - Cyr Aviation

Located in Blythe, United States

ICAO - 56CL, IATA -

Data provided by Airmate  

General information

Coordinates: N33°35'31" W114°36'20"
Elevation is 263 feet MSL.
Magnetic variation is 13° East
View others Airports in California

Operational data

Special qualification required
Current time UTC:
Current local time:
Weather at : KBLH - Blythe ( 11 km )
METAR: KBLH 221152Z AUTO 15004KT 10SM CLR 30/12 A2977 RMK AO2 SLP071 7//// T03000122 10361 20300 53001
TAF: KBLH 221132Z 2212/2312 20005KT P6SM SCT150 BKN250 FM222100 18011G18KT P6SM FEW130 SCT250 FM230100 22011KT P6SM SCT120 BKN200 FM230800 17007KT P6SM SCT120 BKN200
View NOTAMs / SUP AIP / TFR affecting this airport [VIEW]
Communications frequencies: [VIEW]

Runways:

RWY identifierQFULength (ft)Width (ft)SurfaceLDA (ft)
16240050ASPH
34240050ASPH

Airport contact information

Address: Blythe United States

Satellite view of 56CL